Time;durP1;ratioP1;P1;durP2;ratioP2;P2;SDS_P1;SDS_P2;PMS_P1;PMS_P2;Temp;Humidity;BMP_temperature;BMP_pressure;BME280_temperature;BME280_humidity;BME280_pressure;Samples;Min_cycle;Max_cycle;Signal;HPM_P1;HPM_P2
2023/03/30 00:00:55;;;;;;;4.03;2.17;;;15.30;95.40;;;;;;5041215;28;21550;-83
2023/03/30 00:03:22;;;;;;;3.83;2.60;;;15.30;95.30;;;;;;5039865;28;21259;-82
2023/03/30 00:05:50;;;;;;;3.70;1.80;;;15.40;95.00;;;;;;5040520;28;20464;-84
2023/03/30 00:08:17;;;;;;;3.87;1.97;;;15.40;94.90;;;;;;5040754;28;20470;-83
2023/03/30 00:10:45;;;;;;;5.07;2.90;;;15.50;94.80;;;;;;5040897;28;20457;-83
2023/03/30 00:13:12;;;;;;;3.40;2.43;;;15.50;94.80;;;;;;5039414;28;20504;-83
2023/03/30 00:15:39;;;;;;;4.97;2.20;;;15.40;94.80;;;;;;5036929;28;20456;-84
2023/03/30 00:18:07;;;;;;;3.50;2.30;;;15.50;94.90;;;;;;5040542;28;20619;-82
2023/03/30 00:20:36;;;;;;;2.00;1.90;;;15.50;94.70;;;;;;5039350;28;20449;-81
2023/03/30 00:23:03;;;;;;;3.20;2.00;;;15.50;94.30;;;;;;5039421;28;20485;-84
2023/03/30 00:25:30;;;;;;;4.97;3.13;;;15.50;94.30;;;;;;5038734;28;22209;-83
2023/03/30 00:27:57;;;;;;;3.13;2.10;;;15.40;94.20;;;;;;5039750;28;20452;-84
2023/03/30 00:30:24;;;;;;;4.63;2.00;;;15.40;94.40;;;;;;5055976;28;20498;-84
2023/03/30 00:32:50;;;;;;;7.50;2.40;;;15.40;94.40;;;;;;5041247;28;20487;-84
2023/03/30 00:35:18;;;;;;;2.60;2.00;;;15.40;94.30;;;;;;5040037;28;20508;-82
2023/03/30 00:37:48;;;;;;;3.73;2.10;;;15.30;94.30;;;;;;5039889;28;20614;-84
2023/03/30 00:40:20;;;;;;;4.13;2.10;;;15.30;94.20;;;;;;5039276;28;20445;-83
2023/03/30 00:42:47;;;;;;;2.93;2.37;;;15.20;94.30;;;;;;5043165;28;20468;-83
2023/03/30 00:45:43;;;;;;;2.13;1.60;;;15.30;94.30;;;;;;5052090;28;20455;-82
2023/03/30 00:48:17;;;;;;;3.23;1.60;;;15.10;94.30;;;;;;5043427;28;20452;-84
2023/03/30 00:50:54;;;;;;;3.83;1.87;;;15.10;94.60;;;;;;5058491;28;20543;-84
2023/03/30 00:53:29;;;;;;;3.40;1.97;;;15.40;94.10;;;;;;5059996;28;20464;-84
2023/03/30 00:55:57;;;;;;;3.53;1.80;;;15.50;93.40;;;;;;5059580;28;20470;-84
2023/03/30 00:58:26;;;;;;;4.37;1.70;;;15.60;93.70;;;;;;5077560;28;20888;-84
2023/03/30 01:00:53;;;;;;;5.77;2.27;;;15.50;93.70;;;;;;5057931;28;20455;-84
2023/03/30 01:03:36;;;;;;;2.83;1.50;;;15.50;93.40;;;;;;5056854;28;20465;-84
2023/03/30 01:06:06;;;;;;;3.90;1.97;;;15.50;93.40;;;;;;5058581;28;20564;-83
2023/03/30 01:08:33;;;;;;;4.80;2.50;;;15.30;93.50;;;;;;5052803;28;20448;-84
2023/03/30 01:11:01;;;;;;;5.23;1.77;;;15.50;93.50;;;;;;5051475;28;20453;-85
2023/03/30 01:13:31;;;;;;;7.43;2.10;;;15.50;93.40;;;;;;5059082;28;20500;-84
2023/03/30 01:16:17;;;;;;;3.53;1.80;;;15.40;93.30;;;;;;5044137;28;20464;-83
2023/03/30 01:18:56;;;;;;;5.20;2.00;;;15.50;93.30;;;;;;5045417;28;20505;-87
2023/03/30 01:21:54;;;;;;;3.07;1.70;;;15.50;93.00;;;;;;5049408;28;20445;-83
2023/03/30 01:25:01;;;;;;;5.87;2.10;;;15.50;93.10;;;;;;5038694;28;20478;-84
2023/03/30 01:27:39;;;;;;;4.93;2.00;;;15.60;92.80;;;;;;5026914;28;21204;-83
2023/03/30 01:30:25;;;;;;;6.53;2.00;;;15.60;92.80;;;;;;5040692;28;20444;-85
2023/03/30 01:33:04;;;;;;;4.27;2.27;;;15.70;92.90;;;;;;5036656;28;20474;-83
2023/03/30 01:35:44;;;;;;;3.73;1.80;;;15.60;92.80;;;;;;5039913;28;20448;-83
2023/03/30 01:38:33;;;;;;;6.93;2.20;;;15.60;92.90;;;;;;5039351;28;20488;-82
2023/03/30 01:41:21;;;;;;;5.33;2.00;;;15.60;92.90;;;;;;5039871;28;20441;-82
2023/03/30 01:43:59;;;;;;;3.13;1.97;;;15.70;92.70;;;;;;5039254;28;20452;-83
2023/03/30 01:46:29;;;;;;;4.80;2.20;;;15.70;92.70;;;;;;5038282;28;20476;-85
2023/03/30 01:49:19;;;;;;;4.03;1.90;;;15.70;92.70;;;;;;5035641;28;20456;-83
2023/03/30 01:52:09;;;;;;;8.00;2.37;;;15.80;92.60;;;;;;5036343;28;20550;-83
2023/03/30 01:54:44;;;;;;;4.00;1.97;;;15.70;92.60;;;;;;5037264;28;20487;-84
2023/03/30 01:57:27;;;;;;;9.33;2.70;;;15.70;92.60;;;;;;5039711;28;20455;-85
2023/03/30 02:00:01;;;;;;;5.53;2.20;;;15.90;92.30;;;;;;5040118;28;20491;-85
2023/03/30 02:02:31;;;;;;;4.60;2.00;;;16.00;92.00;;;;;;5037071;28;20546;-84
2023/03/30 02:05:01;;;;;;;5.17;2.43;;;16.00;91.80;;;;;;5035590;28;20814;-82
2023/03/30 02:07:30;;;;;;;3.03;2.10;;;16.00;91.80;;;;;;5035950;28;20469;-82
2023/03/30 02:10:03;;;;;;;3.43;1.90;;;16.00;91.80;;;;;;5038513;28;20448;-84
2023/03/30 02:12:30;;;;;;;5.47;2.70;;;15.90;91.80;;;;;;5035242;28;20477;-83
2023/03/30 02:15:02;;;;;;;3.97;2.00;;;15.90;92.00;;;;;;5037248;28;20504;-86
2023/03/30 02:17:30;;;;;;;3.47;2.40;;;16.00;91.80;;;;;;5033312;28;20546;-83
2023/03/30 02:19:57;;;;;;;5.20;2.23;;;16.30;91.40;;;;;;5037807;28;20480;-83
2023/03/30 02:22:26;;;;;;;3.23;1.77;;;16.20;91.20;;;;;;5035185;28;20969;-84
2023/03/30 02:24:54;;;;;;;4.77;1.73;;;16.30;91.20;;;;;;5037561;28;21041;-83
2023/03/30 02:27:22;;;;;;;4.90;2.17;;;16.40;90.90;;;;;;5038093;28;20510;-85
2023/03/30 02:29:49;;;;;;;5.97;1.87;;;16.60;90.60;;;;;;5035737;28;20456;-85
2023/03/30 02:32:23;;;;;;;4.03;1.87;;;16.60;90.40;;;;;;5037804;28;20472;-84
2023/03/30 02:35:08;;;;;;;3.23;1.70;;;16.60;90.40;;;;;;5040877;28;21517;-84
2023/03/30 02:38:00;;;;;;;3.23;1.70;;;16.70;90.20;;;;;;5043203;28;20444;-81
2023/03/30 02:40:44;;;;;;;4.53;1.77;;;16.80;90.00;;;;;;5039016;28;20480;-84
2023/03/30 02:43:29;;;;;;;5.07;2.03;;;16.90;89.60;;;;;;5039028;28;20506;-82
2023/03/30 02:46:02;;;;;;;5.87;1.80;;;16.90;89.30;;;;;;5051589;28;20509;-82
2023/03/30 02:49:02;;;;;;;2.43;1.50;;;16.80;89.30;;;;;;5044283;28;20539;-84
2023/03/30 02:51:44;;;;;;;6.70;2.33;;;16.70;90.00;;;;;;5038374;28;20506;-84
2023/03/30 02:54:30;;;;;;;4.20;2.10;;;16.70;90.00;;;;;;5051886;28;20475;-84
2023/03/30 02:57:02;;;;;;;5.03;2.13;;;16.80;89.50;;;;;;5028772;28;20467;-84
2023/03/30 02:59:57;;;;;;;3.37;2.10;;;16.90;89.50;;;;;;5050003;28;20479;-83
2023/03/30 03:02:34;;;;;;;6.80;1.90;;;16.60;89.70;;;;;;5048332;28;20468;-84
2023/03/30 03:05:02;;;;;;;3.87;1.80;;;16.60;89.80;;;;;;5045755;28;20488;-84
2023/03/30 03:07:33;;;;;;;3.43;1.80;;;16.60;90.20;;;;;;5045889;28;20465;-83
2023/03/30 03:10:00;;;;;;;6.40;2.20;;;16.60;90.30;;;;;;5046536;28;20454;-86
2023/03/30 03:12:29;;;;;;;4.07;2.30;;;16.50;90.20;;;;;;5037784;28;20567;-83
2023/03/30 03:14:56;;;;;;;6.43;3.07;;;16.20;90.50;;;;;;5039187;28;20452;-84
2023/03/30 03:17:23;;;;;;;4.53;2.00;;;16.20;91.20;;;;;;5039030;28;20456;-83
2023/03/30 03:19:50;;;;;;;5.50;2.50;;;16.00;91.40;;;;;;5038725;28;20488;-83
2023/03/30 03:22:17;;;;;;;4.57;2.53;;;16.00;91.70;;;;;;5039761;28;20692;-83
2023/03/30 03:24:43;;;;;;;3.83;2.17;;;16.10;91.90;;;;;;5039193;28;20573;-84
2023/03/30 03:27:10;;;;;;;5.40;2.10;;;16.00;91.90;;;;;;5040677;28;20762;-84
2023/03/30 03:29:37;;;;;;;4.60;2.30;;;16.10;92.10;;;;;;5041204;28;20776;-84
2023/03/30 03:32:04;;;;;;;5.73;2.40;;;16.20;91.90;;;;;;5038806;28;20495;-82
2023/03/30 03:34:30;;;;;;;5.03;2.87;;;16.30;91.70;;;;;;5041698;28;20456;-83
2023/03/30 03:36:58;;;;;;;5.10;2.90;;;16.20;91.80;;;;;;5043114;28;20460;-85
2023/03/30 03:39:24;;;;;;;3.60;2.43;;;15.90;92.00;;;;;;5042684;28;20480;-82
2023/03/30 03:41:51;;;;;;;2.70;2.03;;;15.70;92.20;;;;;;5039804;28;20468;-84
2023/03/30 03:44:18;;;;;;;6.10;2.20;;;15.50;92.60;;;;;;5039720;28;20463;-83
2023/03/30 03:46:44;;;;;;;3.60;2.30;;;15.40;93.00;;;;;;5043085;28;20484;-82
2023/03/30 03:49:11;;;;;;;8.30;2.90;;;15.20;93.30;;;;;;5042328;28;20540;-83
2023/03/30 03:51:38;;;;;;;4.87;2.57;;;15.30;93.70;;;;;;5041171;28;21760;-84
2023/03/30 03:54:05;;;;;;;3.97;3.00;;;15.30;93.80;;;;;;5043813;28;20518;-84
2023/03/30 03:56:32;;;;;;;3.53;2.53;;;15.40;93.50;;;;;;5041209;28;20490;-83
2023/03/30 03:59:01;;;;;;;3.03;2.33;;;15.30;93.60;;;;;;5046121;28;20522;-83
2023/03/30 04:01:28;;;;;;;5.40;2.70;;;15.70;93.40;;;;;;5052307;28;20491;-84
2023/03/30 04:03:56;;;;;;;2.90;2.60;;;15.60;93.00;;;;;;5057255;28;20471;-83
2023/03/30 04:06:23;;;;;;;6.87;2.80;;;15.30;93.40;;;;;;5073710;28;20460;-82
2023/03/30 04:08:49;;;;;;;7.47;2.97;;;15.20;93.70;;;;;;5056757;28;20468;-82
2023/03/30 04:11:16;;;;;;;6.60;2.43;;;15.10;94.10;;;;;;5073682;28;20445;-82
2023/03/30 04:13:43;;;;;;;8.17;3.23;;;14.90;94.40;;;;;;5056356;28;20475;-83
2023/03/30 04:16:10;;;;;;;6.43;2.77;;;14.80;94.70;;;;;;5044675;28;20761;-84
2023/03/30 04:18:37;;;;;;;8.67;2.80;;;14.80;95.00;;;;;;5041815;28;20468;-83
2023/03/30 04:21:06;;;;;;;6.00;2.53;;;14.80;95.20;;;;;;5047761;28;20468;-82
2023/03/30 04:23:34;;;;;;;9.07;2.80;;;14.70;95.40;;;;;;5058910;28;20472;-82
2023/03/30 04:26:02;;;;;;;5.13;2.97;;;15.00;95.60;;;;;;5059128;28;20455;-83
2023/03/30 04:28:29;;;;;;;7.53;2.87;;;15.50;94.90;;;;;;5058530;28;20445;-83
2023/03/30 04:31:00;;;;;;;5.60;3.20;;;15.40;94.60;;;;;;5056716;28;20502;-81
2023/03/30 04:33:29;;;;;;;5.17;2.70;;;15.70;94.40;;;;;;5044972;28;20444;-86
2023/03/30 04:35:55;;;;;;;6.73;2.50;;;16.00;94.40;;;;;;5043211;28;20464;-82
2023/03/30 04:38:22;;;;;;;4.70;3.60;;;16.00;93.50;;;;;;5034640;28;20483;-83
2023/03/30 04:40:50;;;;;;;9.80;3.67;;;15.80;93.60;;;;;;5036977;28;20491;-82
2023/03/30 04:43:21;;;;;;;5.87;2.80;;;15.80;93.90;;;;;;5032755;28;20484;-82
2023/03/30 04:45:53;;;;;;;6.97;3.00;;;15.60;94.00;;;;;;5035752;28;20452;-83
2023/03/30 04:48:21;;;;;;;10.80;3.10;;;15.50;94.30;;;;;;5037834;28;20457;-82
2023/03/30 04:50:49;;;;;;;5.97;3.73;;;15.50;94.60;;;;;;5039946;28;21850;-81
2023/03/30 04:53:17;;;;;;;7.13;3.63;;;15.70;94.40;;;;;;5038979;28;20484;-82
2023/03/30 04:55:49;;;;;;;7.30;3.33;;;16.00;94.20;;;;;;5052271;28;20445;-82
2023/03/30 04:58:16;;;;;;;5.93;3.43;;;15.90;94.00;;;;;;5058708;28;20457;-82
2023/03/30 05:00:42;;;;;;;6.80;3.20;;;16.00;94.00;;;;;;5052012;28;20489;-82
2023/03/30 05:03:09;;;;;;;8.90;3.10;;;16.10;93.90;;;;;;5055632;28;20455;-82
2023/03/30 05:05:36;;;;;;;6.20;3.33;;;16.00;93.90;;;;;;5055055;28;20464;-81
2023/03/30 05:08:03;;;;;;;5.50;3.07;;;15.90;94.10;;;;;;5033218;28;20664;-81
2023/03/30 05:10:30;;;;;;;5.30;3.30;;;16.00;94.20;;;;;;5032052;28;20461;-82
2023/03/30 05:12:57;;;;;;;8.07;3.50;;;16.10;94.00;;;;;;5032226;28;20486;-84
2023/03/30 05:15:23;;;;;;;9.10;3.43;;;16.30;93.80;;;;;;5035825;28;20993;-83
2023/03/30 05:17:50;;;;;;;8.60;3.47;;;16.40;93.80;;;;;;5036840;28;20817;-83
2023/03/30 05:20:17;;;;;;;7.93;3.20;;;16.20;93.80;;;;;;5038297;28;20483;-82
2023/03/30 05:22:45;;;;;;;7.00;3.10;;;16.20;93.70;;;;;;5037216;28;20777;-81
2023/03/30 05:25:12;;;;;;;5.60;2.60;;;16.30;93.90;;;;;;5037368;28;20985;-81
2023/03/30 05:27:39;;;;;;;8.17;3.33;;;16.10;93.70;;;;;;5048755;28;20518;-83
2023/03/30 05:30:07;;;;;;;8.07;3.60;;;16.20;93.90;;;;;;5041785;28;20429;-82
2023/03/30 05:32:33;;;;;;;7.90;3.07;;;16.30;93.70;;;;;;5039199;28;20534;-84
2023/03/30 05:35:00;;;;;;;6.23;3.10;;;16.40;93.60;;;;;;5036749;28;20839;-82
2023/03/30 05:37:27;;;;;;;6.17;3.30;;;16.50;93.50;;;;;;5033027;28;20471;-82
2023/03/30 05:39:54;;;;;;;6.23;3.63;;;16.50;93.40;;;;;;5032919;28;20488;-83
2023/03/30 05:42:21;;;;;;;4.77;4.10;;;16.40;93.40;;;;;;5033828;28;20880;-83
2023/03/30 05:44:47;;;;;;;10.20;3.00;;;16.20;93.50;;;;;;5034380;28;20484;-83
2023/03/30 05:47:15;;;;;;;4.87;3.00;;;16.00;94.00;;;;;;5034181;28;20452;-83
2023/03/30 05:49:42;;;;;;;5.40;3.10;;;16.00;94.00;;;;;;5036034;28;20927;-82
2023/03/30 05:52:10;;;;;;;4.37;3.13;;;16.30;93.90;;;;;;5030739;28;20530;-82
2023/03/30 05:54:37;;;;;;;7.57;3.80;;;16.40;93.80;;;;;;5038458;28;21356;-83
2023/03/30 05:57:03;;;;;;;7.23;3.60;;;16.10;93.70;;;;;;5037493;28;20463;-85
2023/03/30 06:02:19;;;;;;;6.77;3.40;;;16.10;94.10;;;;;;4993417;28;20508;-84
2023/03/30 06:04:46;;;;;;;4.27;2.83;;;16.10;94.00;;;;;;4993110;28;20477;-84
2023/03/30 06:07:13;;;;;;;5.17;3.90;;;15.90;94.30;;;;;;4992971;28;20485;-84
2023/03/30 06:09:41;;;;;;;8.37;3.17;;;15.80;94.50;;;;;;4998643;28;20459;-83
2023/03/30 06:12:08;;;;;;;9.20;3.20;;;16.00;94.50;;;;;;4992890;28;20490;-84
2023/03/30 06:14:34;;;;;;;11.37;7.37;;;16.00;94.50;;;;;;4992223;28;20469;-84
2023/03/30 06:17:02;;;;;;;11.50;3.70;;;16.20;94.30;;;;;;4994252;28;20475;-83
2023/03/30 06:19:28;;;;;;;6.43;3.67;;;16.50;94.00;;;;;;4991474;28;20486;-83
2023/03/30 06:21:55;;;;;;;8.53;4.27;;;16.60;93.60;;;;;;4992470;28;20474;-85
2023/03/30 06:24:22;;;;;;;10.03;3.30;;;16.70;93.50;;;;;;4995218;28;20465;-82
2023/03/30 06:29:30;;;;;;;7.70;3.60;;;16.60;93.80;;;;;;5357437;22;20569;-83
2023/03/30 06:31:57;;;;;;;5.53;3.30;;;16.40;93.70;;;;;;5051280;28;20483;-85
2023/03/30 06:34:24;;;;;;;9.70;3.17;;;16.20;94.20;;;;;;5039016;28;22482;-83
2023/03/30 06:36:52;;;;;;;6.67;3.90;;;16.30;94.20;;;;;;5036183;28;20460;-83
2023/03/30 06:39:20;;;;;;;5.80;3.47;;;16.30;94.30;;;;;;5037494;28;20535;-82
2023/03/30 06:41:47;;;;;;;4.07;3.20;;;16.50;94.30;;;;;;5040518;28;20496;-82
2023/03/30 06:44:14;;;;;;;7.20;3.77;;;16.70;94.00;;;;;;5037190;28;20899;-82
2023/03/30 06:46:41;;;;;;;6.00;3.00;;;16.70;93.70;;;;;;5036761;28;20444;-83
2023/03/30 06:49:11;;;;;;;6.13;3.53;;;16.70;93.50;;;;;;5043427;28;21247;-82
2023/03/30 06:51:37;;;;;;;4.43;2.93;;;16.70;93.70;;;;;;5048658;28;20530;-83
2023/03/30 06:54:04;;;;;;;5.70;3.60;;;16.70;93.80;;;;;;5049590;28;20444;-81
2023/03/30 06:56:31;;;;;;;6.80;4.30;;;16.60;94.00;;;;;;5048006;28;20673;-82
2023/03/30 06:58:57;;;;;;;6.40;3.17;;;16.70;94.10;;;;;;5049496;28;20457;-83
2023/03/30 07:01:24;;;;;;;10.00;3.97;;;16.70;94.00;;;;;;5078241;22;20606;-84
2023/03/30 07:03:55;;;;;;;7.97;3.90;;;16.80;94.00;;;;;;5044751;28;20448;-83
2023/03/30 07:06:23;;;;;;;5.23;3.07;;;16.80;94.10;;;;;;5047132;28;20456;-83
2023/03/30 07:08:49;;;;;;;6.50;3.00;;;16.70;94.10;;;;;;5051443;28;20448;-83
2023/03/30 07:11:16;;;;;;;6.50;3.83;;;16.50;94.30;;;;;;5048774;28;20447;-83
2023/03/30 07:13:43;;;;;;;5.67;3.70;;;16.30;94.70;;;;;;5048083;28;20544;-82
2023/03/30 07:16:10;;;;;;;9.27;4.20;;;16.20;95.00;;;;;;5042636;28;20486;-82
2023/03/30 07:18:36;;;;;;;5.07;3.17;;;16.60;95.00;;;;;;5041365;28;20437;-83
2023/03/30 07:21:03;;;;;;;5.07;3.30;;;16.60;94.60;;;;;;5035233;28;20566;-83
2023/03/30 07:23:30;;;;;;;4.57;2.90;;;16.90;94.50;;;;;;5044432;28;20473;-84
2023/03/30 07:25:57;;;;;;;4.90;2.97;;;16.90;94.00;;;;;;5045513;28;20529;-83
2023/03/30 07:28:24;;;;;;;5.57;2.90;;;16.80;94.20;;;;;;5044347;28;21111;-83
2023/03/30 07:30:51;;;;;;;4.87;2.53;;;17.10;93.90;;;;;;5041164;28;20571;-83
2023/03/30 07:33:18;;;;;;;5.43;2.90;;;17.10;93.60;;;;;;5040596;28;20480;-85
2023/03/30 07:35:46;;;;;;;5.50;2.93;;;17.20;93.70;;;;;;5042046;28;21234;-85
2023/03/30 07:38:13;;;;;;;4.40;2.50;;;18.20;92.70;;;;;;5060484;28;20462;-85
2023/03/30 07:40:41;;;;;;;3.57;2.23;;;18.50;91.10;;;;;;5041913;28;20849;-83
2023/03/30 07:43:09;;;;;;;5.83;2.50;;;18.50;90.30;;;;;;5043462;28;20967;-84
2023/03/30 07:45:36;;;;;;;4.33;2.30;;;17.90;90.40;;;;;;5045634;28;20785;-83
2023/03/30 07:48:04;;;;;;;4.10;2.03;;;17.40;91.20;;;;;;5046356;28;20446;-84
2023/03/30 07:50:31;;;;;;;8.77;2.70;;;17.10;91.80;;;;;;5046287;28;20455;-83
2023/03/30 07:52:58;;;;;;;5.10;2.23;;;17.00;92.40;;;;;;5046233;28;20472;-83
2023/03/30 07:55:27;;;;;;;4.70;2.40;;;16.90;92.50;;;;;;5047831;28;20444;-82
2023/03/30 07:57:56;;;;;;;2.83;1.90;;;16.70;92.80;;;;;;5041469;28;21700;-83
2023/03/30 08:00:23;;;;;;;4.73;2.20;;;16.60;92.60;;;;;;5047038;28;20535;-83
2023/03/30 08:02:50;;;;;;;4.67;2.10;;;16.50;92.80;;;;;;5043819;28;20475;-85
2023/03/30 08:05:17;;;;;;;7.33;1.83;;;16.60;93.00;;;;;;5049597;28;20447;-84
2023/03/30 08:07:44;;;;;;;7.50;1.77;;;16.60;92.60;;;;;;5050838;28;20448;-83
2023/03/30 08:10:11;;;;;;;1.87;1.60;;;16.50;92.50;;;;;;5041407;28;20519;-84
2023/03/30 08:12:38;;;;;;;2.17;1.50;;;16.40;92.60;;;;;;5042770;28;21326;-83
2023/03/30 08:15:06;;;;;;;1.67;1.37;;;16.40;92.50;;;;;;5043128;28;20448;-84
2023/03/30 08:17:33;;;;;;;2.10;1.50;;;16.80;92.10;;;;;;5042398;28;20467;-84
2023/03/30 08:20:00;;;;;;;1.53;1.43;;;16.70;91.70;;;;;;5041421;28;21465;-84
2023/03/30 08:22:27;;;;;;;2.20;1.40;;;16.60;91.80;;;;;;5043902;28;21344;-84
2023/03/30 08:24:54;;;;;;;2.80;1.43;;;16.40;92.00;;;;;;5050507;28;20425;-84
2023/03/30 08:27:20;;;;;;;3.67;1.67;;;16.50;92.20;;;;;;5057762;28;20440;-83
2023/03/30 08:29:47;;;;;;;3.20;1.50;;;16.50;92.20;;;;;;5058122;28;20436;-83
2023/03/30 08:32:15;;;;;;;3.73;1.43;;;16.50;92.20;;;;;;5056986;28;20556;-84
2023/03/30 08:34:41;;;;;;;2.47;1.47;;;16.50;92.40;;;;;;5052993;28;20462;-84
2023/03/30 08:37:08;;;;;;;3.90;1.77;;;16.40;92.30;;;;;;5041064;28;20448;-83
2023/03/30 08:39:35;;;;;;;5.83;1.77;;;16.30;92.50;;;;;;5038683;28;20915;-85
2023/03/30 08:42:34;;;;;;;3.60;1.57;;;16.40;92.80;;;;;;5053289;28;20464;-84
2023/03/30 08:45:04;;;;;;;3.53;1.83;;;16.70;92.50;;;;;;5038665;28;20454;-83
2023/03/30 08:47:38;;;;;;;2.97;1.40;;;17.10;91.90;;;;;;5037592;28;20542;-84
2023/03/30 08:50:16;;;;;;;4.03;1.80;;;17.30;91.30;;;;;;5038114;28;22669;-83
2023/03/30 08:52:42;;;;;;;2.43;1.73;;;17.20;91.00;;;;;;5036542;28;20555;-84
2023/03/30 08:55:23;;;;;;;3.27;1.60;;;17.00;91.30;;;;;;5040170;28;20460;-83
2023/03/30 08:57:58;;;;;;;4.73;1.80;;;17.00;91.00;;;;;;5038057;28;20939;-85
2023/03/30 09:00:52;;;;;;;2.13;1.53;;;16.90;90.90;;;;;;5037299;28;20472;-83
2023/03/30 09:03:35;;;;;;;2.87;1.40;;;17.00;90.70;;;;;;5036993;28;21754;-84
2023/03/30 09:06:43;;;;;;;2.40;1.33;;;17.00;90.90;;;;;;5039599;28;20445;-84
2023/03/30 09:09:14;;;;;;;4.10;1.70;;;17.10;90.80;;;;;;5038750;28;20476;-82
2023/03/30 09:11:42;;;;;;;7.03;2.17;;;17.40;90.60;;;;;;5036638;28;20488;-83
2023/03/30 09:14:18;;;;;;;5.07;2.10;;;17.40;91.70;;;;;;5037865;28;20449;-84
2023/03/30 09:16:54;;;;;;;2.10;1.57;;;17.20;93.00;;;;;;5038262;28;20460;-83
2023/03/30 09:19:33;;;;;;;1.50;1.23;;;17.10;94.00;;;;;;5038805;28;20575;-84
2023/03/30 09:22:02;;;;;;;3.93;1.90;;;17.00;94.20;;;;;;5038741;28;21053;-84
2023/03/30 09:24:29;;;;;;;6.87;3.40;;;16.70;94.50;;;;;;5055918;28;20425;-85
2023/03/30 09:27:17;;;;;;;3.93;2.07;;;16.50;95.10;;;;;;5044886;28;20483;-84
2023/03/30 09:29:50;;;;;;;5.40;3.73;;;16.40;95.60;;;;;;5039469;28;20452;-83
2023/03/30 09:32:41;;;;;;;3.93;1.80;;;16.20;95.90;;;;;;5040380;28;20460;-84
2023/03/30 09:35:20;;;;;;;4.47;1.90;;;16.20;96.10;;;;;;5023016;28;20444;-82
2023/03/30 09:37:47;;;;;;;2.43;1.50;;;16.00;96.00;;;;;;5038788;28;20471;-85
2023/03/30 09:40:42;;;;;;;7.13;2.70;;;15.90;95.90;;;;;;5039972;28;20476;-84
2023/03/30 09:43:16;;;;;;;7.30;3.20;;;15.80;96.10;;;;;;5032104;28;20472;-84
2023/03/30 09:45:44;;;;;;;8.90;1.47;;;15.50;96.70;;;;;;5036007;28;20451;-84
2023/03/30 09:48:15;;;;;;;6.80;4.00;;;15.10;97.50;;;;;;5040564;28;21322;-84
2023/03/30 09:50:45;;;;;;;4.20;1.53;;;14.60;97.10;;;;;;5044566;28;20547;-83
2023/03/30 09:53:28;;;;;;;1.53;0.77;;;14.30;98.50;;;;;;5055140;28;20456;-85
2023/03/30 09:55:59;;;;;;;2.47;0.90;;;13.90;99.90;;;;;;5040083;28;20456;-82
2023/03/30 09:58:31;;;;;;;1.73;1.10;;;13.70;99.90;;;;;;5039903;28;20506;-82
2023/03/30 10:01:15;;;;;;;5.67;1.30;;;13.50;99.90;;;;;;5039111;28;20562;-83
2023/03/30 10:03:44;;;;;;;4.83;1.47;;;13.40;99.90;;;;;;5039592;28;20460;-83
2023/03/30 10:06:17;;;;;;;2.93;0.97;;;13.30;99.90;;;;;;5039871;28;20448;-83
2023/03/30 10:08:55;;;;;;;1.87;0.90;;;13.30;99.90;;;;;;5042401;28;20483;-84
2023/03/30 10:11:44;;;;;;;3.73;1.03;;;13.30;99.90;;;;;;5038877;28;22252;-83
2023/03/30 10:14:35;;;;;;;1.97;1.30;;;13.40;99.90;;;;;;5034507;28;20518;-84
2023/03/30 10:17:04;;;;;;;6.20;1.43;;;13.50;99.90;;;;;;5039622;28;20456;-82
2023/03/30 10:19:35;;;;;;;2.67;1.10;;;13.70;99.90;;;;;;5041012;28;20460;-83
2023/03/30 10:22:16;;;;;;;6.40;1.07;;;13.90;99.90;;;;;;5040346;28;20556;-84
2023/03/30 10:24:52;;;;;;;4.70;1.83;;;14.30;99.90;;;;;;5040678;28;20559;-82
2023/03/30 10:27:24;;;;;;;2.97;1.13;;;14.40;99.90;;;;;;5059264;28;20739;-83
2023/03/30 10:29:51;;;;;;;4.43;1.23;;;14.70;99.40;;;;;;5038921;28;20460;-82
2023/03/30 10:32:28;;;;;;;3.93;0.83;;;14.60;99.80;;;;;;5039318;28;20739;-83
2023/03/30 10:35:00;;;;;;;1.40;0.80;;;14.40;99.90;;;;;;5040524;28;20452;-83
2023/03/30 10:37:37;;;;;;;1.27;1.17;;;14.30;99.90;;;;;;5038044;28;20464;-83
2023/03/30 10:40:23;;;;;;;1.40;0.97;;;14.10;99.90;;;;;;5040415;28;20815;-82
2023/03/30 10:42:56;;;;;;;2.30;1.43;;;14.10;99.90;;;;;;5057125;28;20478;-82
2023/03/30 10:45:33;;;;;;;2.67;1.10;;;14.10;99.90;;;;;;5045360;28;20444;-84
2023/03/30 10:48:33;;;;;;;2.40;1.10;;;14.20;99.90;;;;;;5042987;28;20455;-83
2023/03/30 10:51:24;;;;;;;2.17;0.80;;;14.80;98.90;;;;;;5043596;28;20453;-84
2023/03/30 10:54:15;;;;;;;2.10;1.00;;;15.30;97.70;;;;;;5043629;28;20453;-84
2023/03/30 10:56:45;;;;;;;2.70;1.50;;;15.80;97.50;;;;;;5048861;28;20471;-84
2023/03/30 10:59:20;;;;;;;2.73;0.73;;;16.20;96.40;;;;;;5054260;28;20456;-84
2023/03/30 11:02:25;;;;;;;1.20;0.73;;;16.50;95.40;;;;;;5049715;28;20492;-82
2023/03/30 11:04:57;;;;;;;1.60;0.70;;;16.80;94.50;;;;;;5048946;28;20482;-84
2023/03/30 11:07:31;;;;;;;2.17;1.30;;;16.90;94.30;;;;;;5048685;28;20453;-83
2023/03/30 11:10:35;;;;;;;1.10;0.70;;;17.40;94.00;;;;;;5065510;28;20458;-83
2023/03/30 11:13:06;;;;;;;0.70;0.50;;;18.00;92.80;;;;;;5016845;28;20577;-83
2023/03/30 11:15:48;;;;;;;1.90;0.80;;;18.40;91.50;;;;;;5059205;28;20480;-83
2023/03/30 11:18:41;;;;;;;1.10;0.80;;;19.40;90.20;;;;;;5063264;28;20441;-83
2023/03/30 11:21:17;;;;;;;2.80;1.17;;;19.20;88.60;;;;;;5061521;28;20502;-84
2023/03/30 11:23:58;;;;;;;2.23;1.00;;;19.10;88.80;;;;;;5061159;28;20518;-83
2023/03/30 11:26:41;;;;;;;2.13;1.03;;;18.70;89.20;;;;;;5060593;28;20494;-82
2023/03/30 11:29:51;;;;;;;2.90;1.60;;;18.20;90.20;;;;;;5060659;28;20448;-83
2023/03/30 11:32:48;;;;;;;2.57;1.23;;;17.60;91.30;;;;;;5060593;28;20468;-84
2023/03/30 11:35:43;;;;;;;2.40;1.13;;;17.20;91.90;;;;;;5061209;28;20441;-83
2023/03/30 11:38:49;;;;;;;4.20;1.60;;;16.80;92.70;;;;;;5062081;28;20468;-83
2023/03/30 11:42:11;;;;;;;5.43;1.67;;;16.60;92.70;;;;;;5060592;28;20464;-83
2023/03/30 11:44:39;;;;;;;4.13;1.73;;;16.70;93.80;;;;;;5063515;28;20441;-85
2023/03/30 11:47:49;;;;;;;1.57;1.07;;;17.50;93.70;;;;;;5063929;28;20478;-83
2023/03/30 11:50:56;;;;;;;3.80;1.30;;;18.00;92.30;;;;;;5060452;28;20463;-82
2023/03/30 11:53:44;;;;;;;2.50;1.30;;;18.70;90.80;;;;;;5070057;28;20511;-84
2023/03/30 11:56:49;;;;;;;4.03;1.60;;;19.20;88.50;;;;;;5046232;28;20982;-84
2023/03/30 11:59:40;;;;;;;3.20;1.20;;;19.50;84.30;;;;;;5011701;28;20506;-83
2023/03/30 12:02:42;;;;;;;2.90;0.80;;;19.90;80.90;;;;;;5045993;28;20485;-84
2023/03/30 12:05:20;;;;;;;1.33;0.63;;;19.30;82.20;;;;;;5045900;28;20490;-83
2023/03/30 12:08:12;;;;;;;3.00;0.80;;;19.20;81.40;;;;;;5042535;28;20475;-83
2023/03/30 12:10:45;;;;;;;1.90;0.67;;;19.40;81.70;;;;;;5049539;28;20552;-84
2023/03/30 12:13:18;;;;;;;1.63;0.50;;;20.00;79.30;;;;;;5048245;28;20496;-83
2023/03/30 12:15:59;;;;;;;1.20;0.60;;;20.10;78.60;;;;;;5049607;28;20565;-83
2023/03/30 12:18:51;;;;;;;0.57;0.50;;;20.40;77.50;;;;;;5057019;28;20490;-84
2023/03/30 12:21:30;;;;;;;0.80;0.70;;;21.40;74.30;;;;;;5060987;28;20472;-83
2023/03/30 12:24:12;;;;;;;1.30;0.60;;;21.20;72.40;;;;;;5063562;28;21430;-84
2023/03/30 12:26:43;;;;;;;1.20;0.70;;;20.70;73.20;;;;;;5062217;28;20438;-83
2023/03/30 12:29:41;;;;;;;1.23;0.80;;;20.40;73.50;;;;;;5060528;28;20479;-82
2023/03/30 12:32:30;;;;;;;5.67;3.00;;;20.00;75.70;;;;;;5060102;28;20452;-82
2023/03/30 12:35:00;;;;;;;3.00;1.23;;;19.50;76.40;;;;;;5056205;28;20453;-83
2023/03/30 12:37:40;;;;;;;3.00;1.10;;;18.90;78.70;;;;;;5050508;28;20476;-85
2023/03/30 12:40:20;;;;;;;2.70;1.00;;;18.50;80.70;;;;;;5047938;28;20466;-83
2023/03/30 12:43:05;;;;;;;6.13;1.30;;;18.10;82.20;;;;;;5042869;28;20481;-82
2023/03/30 12:45:46;;;;;;;1.97;1.00;;;17.80;83.50;;;;;;5053963;28;20433;-84
2023/03/30 12:48:29;;;;;;;4.53;1.97;;;17.70;85.00;;;;;;5048067;28;20468;-82
2023/03/30 12:51:04;;;;;;;3.73;1.40;;;17.60;85.90;;;;;;5047977;28;20460;-83
2023/03/30 12:54:10;;;;;;;3.37;1.40;;;17.70;86.80;;;;;;5045398;28;20497;-84
2023/03/30 12:57:06;;;;;;;2.67;1.40;;;17.50;87.20;;;;;;5043773;28;20628;-83
2023/03/30 13:00:05;;;;;;;3.60;1.27;;;17.70;87.80;;;;;;5046274;28;20487;-83
2023/03/30 13:03:03;;;;;;;1.60;1.47;;;17.80;87.30;;;;;;5057832;28;20510;-82
2023/03/30 13:05:44;;;;;;;2.17;1.33;;;17.70;87.00;;;;;;5056065;28;20469;-83
2023/03/30 13:08:44;;;;;;;3.63;1.50;;;17.80;87.70;;;;;;5061396;28;20452;-83
2023/03/30 13:11:19;;;;;;;3.83;1.30;;;17.70;88.00;;;;;;5059816;28;20514;-81
2023/03/30 13:14:16;;;;;;;2.87;1.47;;;17.40;88.60;;;;;;5058768;28;20432;-83
2023/03/30 13:16:52;;;;;;;5.37;1.80;;;17.20;89.50;;;;;;5059117;28;20466;-82
2023/03/30 13:19:36;;;;;;;4.93;1.60;;;17.20;90.60;;;;;;5054487;28;20452;-82
2023/03/30 13:22:32;;;;;;;6.10;1.50;;;17.00;91.80;;;;;;5024996;28;20491;-81
2023/03/30 13:25:27;;;;;;;4.07;2.13;;;16.80;93.40;;;;;;5059060;28;20448;-82
2023/03/30 13:28:39;;;;;;;12.60;5.93;;;16.40;94.60;;;;;;5040285;28;20451;-81